sensor_id;sensor_type;location;lat;lon;timestamp;P1;durP1;ratioP1;P2;durP2;ratioP2
15383;SDS011;7790;53.022;12.968;2023-11-19T00:03:41;1.80;;;1.33;;
15383;SDS011;7790;53.022;12.968;2023-11-19T00:07:41;1.40;;;1.30;;
15383;SDS011;7790;53.022;12.968;2023-11-19T00:11:42;1.50;;;1.40;;
15383;SDS011;7790;53.022;12.968;2023-11-19T00:15:46;1.57;;;1.43;;
15383;SDS011;7790;53.022;12.968;2023-11-19T00:19:47;1.60;;;1.50;;
15383;SDS011;7790;53.022;12.968;2023-11-19T00:23:49;1.43;;;1.33;;
15383;SDS011;7790;53.022;12.968;2023-11-19T00:27:50;1.53;;;1.43;;
15383;SDS011;7790;53.022;12.968;2023-11-19T00:31:53;1.50;;;1.40;;
15383;SDS011;7790;53.022;12.968;2023-11-19T00:35:54;1.47;;;1.37;;
15383;SDS011;7790;53.022;12.968;2023-11-19T00:39:56;1.50;;;1.40;;
15383;SDS011;7790;53.022;12.968;2023-11-19T00:43:56;2.10;;;1.37;;
15383;SDS011;7790;53.022;12.968;2023-11-19T00:47:57;1.30;;;1.20;;
15383;SDS011;7790;53.022;12.968;2023-11-19T00:51:59;1.10;;;1.10;;
15383;SDS011;7790;53.022;12.968;2023-11-19T00:56:00;1.20;;;1.20;;
15383;SDS011;7790;53.022;12.968;2023-11-19T01:00:01;1.67;;;1.30;;
15383;SDS011;7790;53.022;12.968;2023-11-19T01:04:09;1.27;;;1.17;;
15383;SDS011;7790;53.022;12.968;2023-11-19T01:08:10;1.60;;;1.50;;
15383;SDS011;7790;53.022;12.968;2023-11-19T01:12:11;1.50;;;1.40;;
15383;SDS011;7790;53.022;12.968;2023-11-19T01:16:13;1.20;;;1.10;;
15383;SDS011;7790;53.022;12.968;2023-11-19T01:20:13;1.40;;;1.30;;
15383;SDS011;7790;53.022;12.968;2023-11-19T01:24:14;1.30;;;1.23;;
15383;SDS011;7790;53.022;12.968;2023-11-19T01:28:16;1.43;;;1.20;;
15383;SDS011;7790;53.022;12.968;2023-11-19T01:32:17;1.20;;;1.20;;
15383;SDS011;7790;53.022;12.968;2023-11-19T01:36:18;1.50;;;1.40;;
15383;SDS011;7790;53.022;12.968;2023-11-19T01:40:22;1.00;;;1.00;;
15383;SDS011;7790;53.022;12.968;2023-11-19T01:44:22;1.30;;;1.20;;
15383;SDS011;7790;53.022;12.968;2023-11-19T01:48:24;1.20;;;1.10;;
15383;SDS011;7790;53.022;12.968;2023-11-19T01:52:25;1.50;;;1.40;;
15383;SDS011;7790;53.022;12.968;2023-11-19T01:56:27;2.40;;;1.10;;
15383;SDS011;7790;53.022;12.968;2023-11-19T02:00:28;1.17;;;1.17;;
15383;SDS011;7790;53.022;12.968;2023-11-19T02:04:29;1.00;;;1.00;;
15383;SDS011;7790;53.022;12.968;2023-11-19T02:08:30;1.20;;;1.20;;
15383;SDS011;7790;53.022;12.968;2023-11-19T02:12:31;1.40;;;1.30;;
15383;SDS011;7790;53.022;12.968;2023-11-19T02:16:35;1.10;;;1.10;;
15383;SDS011;7790;53.022;12.968;2023-11-19T02:20:36;1.17;;;1.17;;
15383;SDS011;7790;53.022;12.968;2023-11-19T02:24:37;1.17;;;1.10;;
15383;SDS011;7790;53.022;12.968;2023-11-19T02:28:38;4.30;;;1.40;;
15383;SDS011;7790;53.022;12.968;2023-11-19T02:32:43;1.00;;;1.00;;
15383;SDS011;7790;53.022;12.968;2023-11-19T02:36:44;3.13;;;1.20;;
15383;SDS011;7790;53.022;12.968;2023-11-19T02:40:47;1.07;;;1.00;;
15383;SDS011;7790;53.022;12.968;2023-11-19T02:44:49;1.10;;;1.10;;
15383;SDS011;7790;53.022;12.968;2023-11-19T02:48:50;2.43;;;1.13;;
15383;SDS011;7790;53.022;12.968;2023-11-19T02:52:52;1.20;;;1.10;;
15383;SDS011;7790;53.022;12.968;2023-11-19T02:56:58;1.10;;;1.10;;
15383;SDS011;7790;53.022;12.968;2023-11-19T03:01:01;1.20;;;1.10;;
15383;SDS011;7790;53.022;12.968;2023-11-19T03:05:13;1.30;;;1.20;;
15383;SDS011;7790;53.022;12.968;2023-11-19T03:09:15;1.37;;;1.20;;
15383;SDS011;7790;53.022;12.968;2023-11-19T03:13:15;1.40;;;1.30;;
15383;SDS011;7790;53.022;12.968;2023-11-19T03:17:19;1.30;;;1.20;;
15383;SDS011;7790;53.022;12.968;2023-11-19T03:21:30;1.27;;;1.23;;
15383;SDS011;7790;53.022;12.968;2023-11-19T03:25:31;1.20;;;1.10;;
15383;SDS011;7790;53.022;12.968;2023-11-19T03:29:36;1.23;;;1.20;;
15383;SDS011;7790;53.022;12.968;2023-11-19T03:33:38;0.90;;;0.90;;
15383;SDS011;7790;53.022;12.968;2023-11-19T03:37:39;1.17;;;1.13;;
15383;SDS011;7790;53.022;12.968;2023-11-19T03:41:40;1.00;;;1.00;;
15383;SDS011;7790;53.022;12.968;2023-11-19T03:45:41;1.10;;;1.10;;
15383;SDS011;7790;53.022;12.968;2023-11-19T03:49:42;1.30;;;1.20;;
15383;SDS011;7790;53.022;12.968;2023-11-19T03:53:43;0.97;;;0.97;;
15383;SDS011;7790;53.022;12.968;2023-11-19T03:57:45;1.00;;;1.00;;
15383;SDS011;7790;53.022;12.968;2023-11-19T04:01:48;1.43;;;1.33;;
15383;SDS011;7790;53.022;12.968;2023-11-19T04:05:49;1.27;;;1.23;;
15383;SDS011;7790;53.022;12.968;2023-11-19T04:09:50;1.10;;;1.10;;
15383;SDS011;7790;53.022;12.968;2023-11-19T04:13:51;0.90;;;0.90;;
15383;SDS011;7790;53.022;12.968;2023-11-19T04:17:52;1.00;;;1.00;;
15383;SDS011;7790;53.022;12.968;2023-11-19T04:21:52;1.20;;;1.10;;
15383;SDS011;7790;53.022;12.968;2023-11-19T04:25:53;0.90;;;0.90;;
15383;SDS011;7790;53.022;12.968;2023-11-19T04:29:54;1.00;;;1.00;;
15383;SDS011;7790;53.022;12.968;2023-11-19T04:33:56;0.90;;;0.90;;
15383;SDS011;7790;53.022;12.968;2023-11-19T04:37:57;0.90;;;0.90;;
15383;SDS011;7790;53.022;12.968;2023-11-19T04:41:58;2.43;;;1.13;;
15383;SDS011;7790;53.022;12.968;2023-11-19T04:45:59;0.90;;;0.90;;
15383;SDS011;7790;53.022;12.968;2023-11-19T04:50:00;2.17;;;1.30;;
15383;SDS011;7790;53.022;12.968;2023-11-19T04:54:01;1.20;;;1.10;;
15383;SDS011;7790;53.022;12.968;2023-11-19T04:58:02;1.37;;;1.27;;
15383;SDS011;7790;53.022;12.968;2023-11-19T05:02:03;0.93;;;0.93;;
15383;SDS011;7790;53.022;12.968;2023-11-19T05:06:05;1.03;;;1.03;;
15383;SDS011;7790;53.022;12.968;2023-11-19T05:10:06;1.67;;;1.07;;
15383;SDS011;7790;53.022;12.968;2023-11-19T05:14:07;1.30;;;1.20;;
15383;SDS011;7790;53.022;12.968;2023-11-19T05:18:09;1.13;;;1.10;;
15383;SDS011;7790;53.022;12.968;2023-11-19T05:22:10;1.03;;;1.00;;
15383;SDS011;7790;53.022;12.968;2023-11-19T05:26:16;2.43;;;1.20;;
15383;SDS011;7790;53.022;12.968;2023-11-19T05:30:21;1.00;;;1.00;;
15383;SDS011;7790;53.022;12.968;2023-11-19T05:34:23;1.00;;;0.90;;
15383;SDS011;7790;53.022;12.968;2023-11-19T05:38:25;1.50;;;1.40;;
15383;SDS011;7790;53.022;12.968;2023-11-19T05:42:25;1.07;;;1.03;;
15383;SDS011;7790;53.022;12.968;2023-11-19T05:46:27;1.03;;;1.03;;
15383;SDS011;7790;53.022;12.968;2023-11-19T05:50:28;1.07;;;1.03;;
15383;SDS011;7790;53.022;12.968;2023-11-19T05:54:29;1.27;;;1.17;;
15383;SDS011;7790;53.022;12.968;2023-11-19T05:58:32;1.20;;;1.00;;
15383;SDS011;7790;53.022;12.968;2023-11-19T06:02:33;1.10;;;1.00;;
15383;SDS011;7790;53.022;12.968;2023-11-19T06:06:34;1.13;;;1.03;;
15383;SDS011;7790;53.022;12.968;2023-11-19T06:10:35;1.00;;;1.00;;
15383;SDS011;7790;53.022;12.968;2023-11-19T06:14:35;0.73;;;0.73;;
15383;SDS011;7790;53.022;12.968;2023-11-19T06:18:37;1.93;;;1.00;;
15383;SDS011;7790;53.022;12.968;2023-11-19T06:22:37;1.40;;;1.13;;
15383;SDS011;7790;53.022;12.968;2023-11-19T06:26:38;2.73;;;2.10;;
15383;SDS011;7790;53.022;12.968;2023-11-19T06:30:39;2.63;;;2.07;;
15383;SDS011;7790;53.022;12.968;2023-11-19T06:34:41;3.20;;;1.90;;
15383;SDS011;7790;53.022;12.968;2023-11-19T06:38:42;2.80;;;1.93;;
15383;SDS011;7790;53.022;12.968;2023-11-19T06:42:43;2.40;;;2.20;;
15383;SDS011;7790;53.022;12.968;2023-11-19T06:46:44;3.70;;;2.13;;
15383;SDS011;7790;53.022;12.968;2023-11-19T06:50:45;3.20;;;2.07;;
15383;SDS011;7790;53.022;12.968;2023-11-19T06:54:46;2.83;;;2.10;;
15383;SDS011;7790;53.022;12.968;2023-11-19T06:58:47;2.00;;;1.80;;
15383;SDS011;7790;53.022;12.968;2023-11-19T07:02:48;2.77;;;2.10;;
15383;SDS011;7790;53.022;12.968;2023-11-19T07:06:50;2.30;;;1.60;;
15383;SDS011;7790;53.022;12.968;2023-11-19T07:10:53;3.57;;;2.00;;
15383;SDS011;7790;53.022;12.968;2023-11-19T07:14:54;3.27;;;1.80;;
15383;SDS011;7790;53.022;12.968;2023-11-19T07:18:55;3.97;;;1.90;;
15383;SDS011;7790;53.022;12.968;2023-11-19T07:22:56;2.10;;;1.40;;
15383;SDS011;7790;53.022;12.968;2023-11-19T07:26:57;2.80;;;1.77;;
15383;SDS011;7790;53.022;12.968;2023-11-19T07:30:58;2.10;;;1.57;;
15383;SDS011;7790;53.022;12.968;2023-11-19T07:35:03;4.13;;;1.60;;
15383;SDS011;7790;53.022;12.968;2023-11-19T07:39:04;2.60;;;1.50;;
15383;SDS011;7790;53.022;12.968;2023-11-19T07:43:05;1.77;;;1.30;;
15383;SDS011;7790;53.022;12.968;2023-11-19T07:47:07;1.30;;;1.20;;
15383;SDS011;7790;53.022;12.968;2023-11-19T07:51:08;3.00;;;1.60;;
15383;SDS011;7790;53.022;12.968;2023-11-19T07:55:11;2.30;;;1.40;;
15383;SDS011;7790;53.022;12.968;2023-11-19T07:59:12;1.40;;;1.30;;
15383;SDS011;7790;53.022;12.968;2023-11-19T08:03:13;1.47;;;1.20;;
15383;SDS011;7790;53.022;12.968;2023-11-19T08:07:14;1.60;;;1.20;;
15383;SDS011;7790;53.022;12.968;2023-11-19T08:11:15;1.37;;;1.10;;
15383;SDS011;7790;53.022;12.968;2023-11-19T08:15:16;2.77;;;1.00;;
15383;SDS011;7790;53.022;12.968;2023-11-19T08:19:17;1.43;;;1.00;;
15383;SDS011;7790;53.022;12.968;2023-11-19T08:23:18;1.43;;;1.07;;
15383;SDS011;7790;53.022;12.968;2023-11-19T08:27:23;2.40;;;1.00;;
15383;SDS011;7790;53.022;12.968;2023-11-19T08:31:27;1.10;;;1.00;;
15383;SDS011;7790;53.022;12.968;2023-11-19T08:35:31;1.37;;;1.20;;
15383;SDS011;7790;53.022;12.968;2023-11-19T08:39:32;1.13;;;1.03;;
15383;SDS011;7790;53.022;12.968;2023-11-19T08:43:32;4.87;;;1.00;;
15383;SDS011;7790;53.022;12.968;2023-11-19T08:47:33;1.60;;;1.00;;
15383;SDS011;7790;53.022;12.968;2023-11-19T08:51:34;1.67;;;1.07;;
15383;SDS011;7790;53.022;12.968;2023-11-19T08:55:35;1.30;;;0.73;;
15383;SDS011;7790;53.022;12.968;2023-11-19T08:59:37;2.30;;;0.90;;
15383;SDS011;7790;53.022;12.968;2023-11-19T09:03:38;2.20;;;1.07;;
15383;SDS011;7790;53.022;12.968;2023-11-19T09:07:40;0.80;;;0.80;;
15383;SDS011;7790;53.022;12.968;2023-11-19T09:11:41;1.60;;;0.83;;
15383;SDS011;7790;53.022;12.968;2023-11-19T09:15:42;1.80;;;0.80;;
15383;SDS011;7790;53.022;12.968;2023-11-19T09:19:43;1.70;;;0.90;;
15383;SDS011;7790;53.022;12.968;2023-11-19T09:23:44;1.17;;;0.70;;
15383;SDS011;7790;53.022;12.968;2023-11-19T09:27:45;1.50;;;0.80;;
15383;SDS011;7790;53.022;12.968;2023-11-19T09:31:45;0.63;;;0.63;;
15383;SDS011;7790;53.022;12.968;2023-11-19T09:35:46;2.93;;;0.70;;
15383;SDS011;7790;53.022;12.968;2023-11-19T09:39:49;0.73;;;0.63;;
15383;SDS011;7790;53.022;12.968;2023-11-19T09:43:51;2.07;;;0.67;;
15383;SDS011;7790;53.022;12.968;2023-11-19T09:47:51;0.80;;;0.50;;
15383;SDS011;7790;53.022;12.968;2023-11-19T09:51:53;0.70;;;0.60;;
15383;SDS011;7790;53.022;12.968;2023-11-19T09:55:55;1.73;;;0.80;;
15383;SDS011;7790;53.022;12.968;2023-11-19T09:59:56;0.87;;;0.43;;
15383;SDS011;7790;53.022;12.968;2023-11-19T10:03:58;1.63;;;0.80;;
15383;SDS011;7790;53.022;12.968;2023-11-19T10:08:01;1.83;;;0.70;;
15383;SDS011;7790;53.022;12.968;2023-11-19T10:12:03;1.10;;;0.60;;
15383;SDS011;7790;53.022;12.968;2023-11-19T10:16:13;1.23;;;0.80;;
15383;SDS011;7790;53.022;12.968;2023-11-19T10:20:15;1.03;;;0.80;;
15383;SDS011;7790;53.022;12.968;2023-11-19T10:24:16;1.23;;;1.00;;
15383;SDS011;7790;53.022;12.968;2023-11-19T10:28:16;1.50;;;0.90;;
15383;SDS011;7790;53.022;12.968;2023-11-19T10:32:18;2.20;;;0.90;;
15383;SDS011;7790;53.022;12.968;2023-11-19T10:36:20;4.23;;;1.07;;
15383;SDS011;7790;53.022;12.968;2023-11-19T10:40:22;1.53;;;1.17;;
15383;SDS011;7790;53.022;12.968;2023-11-19T10:44:30;1.20;;;1.07;;
15383;SDS011;7790;53.022;12.968;2023-11-19T10:48:33;1.23;;;0.80;;
15383;SDS011;7790;53.022;12.968;2023-11-19T10:52:35;0.93;;;0.90;;
15383;SDS011;7790;53.022;12.968;2023-11-19T10:56:36;8.73;;;0.87;;
15383;SDS011;7790;53.022;12.968;2023-11-19T11:00:38;1.43;;;0.90;;
15383;SDS011;7790;53.022;12.968;2023-11-19T11:04:40;1.03;;;0.80;;
15383;SDS011;7790;53.022;12.968;2023-11-19T11:08:42;2.20;;;0.77;;
15383;SDS011;7790;53.022;12.968;2023-11-19T11:12:43;0.80;;;0.80;;
15383;SDS011;7790;53.022;12.968;2023-11-19T11:16:46;0.80;;;0.80;;
15383;SDS011;7790;53.022;12.968;2023-11-19T11:20:49;0.87;;;0.83;;
15383;SDS011;7790;53.022;12.968;2023-11-19T11:38:21;2.07;;;0.93;;
15383;SDS011;7790;53.022;12.968;2023-11-19T11:50:33;1.43;;;0.67;;
15383;SDS011;7790;53.022;12.968;2023-11-19T11:54:36;1.20;;;0.70;;
15383;SDS011;7790;53.022;12.968;2023-11-19T11:58:36;3.03;;;0.80;;
15383;SDS011;7790;53.022;12.968;2023-11-19T12:02:38;0.50;;;0.50;;
15383;SDS011;7790;53.022;12.968;2023-11-19T12:06:39;0.80;;;0.60;;
15383;SDS011;7790;53.022;12.968;2023-11-19T12:10:44;0.70;;;0.60;;
15383;SDS011;7790;53.022;12.968;2023-11-19T12:19:02;1.63;;;0.73;;
15383;SDS011;7790;53.022;12.968;2023-11-19T12:23:05;4.70;;;0.93;;
15383;SDS011;7790;53.022;12.968;2023-11-19T12:27:07;0.97;;;0.73;;
15383;SDS011;7790;53.022;12.968;2023-11-19T12:31:08;2.37;;;0.90;;
15383;SDS011;7790;53.022;12.968;2023-11-19T12:35:10;8.33;;;0.80;;
15383;SDS011;7790;53.022;12.968;2023-11-19T12:39:11;4.83;;;0.90;;
15383;SDS011;7790;53.022;12.968;2023-11-19T12:43:22;3.33;;;1.00;;
15383;SDS011;7790;53.022;12.968;2023-11-19T12:47:23;7.87;;;1.13;;
15383;SDS011;7790;53.022;12.968;2023-11-19T12:51:30;3.57;;;1.17;;
15383;SDS011;7790;53.022;12.968;2023-11-19T12:55:32;4.13;;;0.87;;
15383;SDS011;7790;53.022;12.968;2023-11-19T12:59:33;6.07;;;1.30;;
15383;SDS011;7790;53.022;12.968;2023-11-19T13:03:35;12.33;;;1.83;;
15383;SDS011;7790;53.022;12.968;2023-11-19T13:07:38;11.93;;;1.60;;
15383;SDS011;7790;53.022;12.968;2023-11-19T13:11:39;12.33;;;1.83;;
15383;SDS011;7790;53.022;12.968;2023-11-19T13:15:41;8.07;;;1.17;;
15383;SDS011;7790;53.022;12.968;2023-11-19T13:19:41;6.87;;;1.40;;
15383;SDS011;7790;53.022;12.968;2023-11-19T13:23:43;3.63;;;1.13;;
15383;SDS011;7790;53.022;12.968;2023-11-19T13:27:45;5.57;;;1.20;;
15383;SDS011;7790;53.022;12.968;2023-11-19T13:31:46;3.60;;;1.00;;
15383;SDS011;7790;53.022;12.968;2023-11-19T13:35:47;5.07;;;1.30;;
15383;SDS011;7790;53.022;12.968;2023-11-19T13:39:48;2.27;;;0.87;;
15383;SDS011;7790;53.022;12.968;2023-11-19T13:43:50;4.33;;;1.40;;
15383;SDS011;7790;53.022;12.968;2023-11-19T13:47:51;5.17;;;1.27;;
15383;SDS011;7790;53.022;12.968;2023-11-19T13:51:52;2.37;;;1.20;;
15383;SDS011;7790;53.022;12.968;2023-11-19T13:55:54;5.77;;;1.17;;
15383;SDS011;7790;53.022;12.968;2023-11-19T13:59:55;5.03;;;1.20;;
15383;SDS011;7790;53.022;12.968;2023-11-19T14:03:56;1.83;;;1.10;;
15383;SDS011;7790;53.022;12.968;2023-11-19T14:07:57;3.30;;;1.23;;
15383;SDS011;7790;53.022;12.968;2023-11-19T14:11:58;4.33;;;1.20;;
15383;SDS011;7790;53.022;12.968;2023-11-19T14:15:59;3.90;;;1.03;;
15383;SDS011;7790;53.022;12.968;2023-11-19T14:20:01;2.70;;;1.30;;
15383;SDS011;7790;53.022;12.968;2023-11-19T14:24:03;2.57;;;1.20;;
15383;SDS011;7790;53.022;12.968;2023-11-19T14:28:04;1.93;;;1.10;;
15383;SDS011;7790;53.022;12.968;2023-11-19T14:32:05;2.37;;;1.07;;
15383;SDS011;7790;53.022;12.968;2023-11-19T14:36:06;2.37;;;1.20;;
15383;SDS011;7790;53.022;12.968;2023-11-19T14:40:08;2.27;;;0.93;;
15383;SDS011;7790;53.022;12.968;2023-11-19T14:44:10;1.83;;;1.17;;
15383;SDS011;7790;53.022;12.968;2023-11-19T14:48:11;2.73;;;1.07;;
15383;SDS011;7790;53.022;12.968;2023-11-19T14:52:11;1.83;;;1.00;;
15383;SDS011;7790;53.022;12.968;2023-11-19T14:56:13;1.50;;;0.90;;
15383;SDS011;7790;53.022;12.968;2023-11-19T15:00:14;3.07;;;0.90;;
15383;SDS011;7790;53.022;12.968;2023-11-19T15:04:15;5.07;;;1.10;;
15383;SDS011;7790;53.022;12.968;2023-11-19T15:08:17;2.83;;;0.90;;
15383;SDS011;7790;53.022;12.968;2023-11-19T15:12:17;1.57;;;0.90;;
15383;SDS011;7790;53.022;12.968;2023-11-19T15:16:18;2.03;;;0.77;;
15383;SDS011;7790;53.022;12.968;2023-11-19T15:20:25;2.33;;;0.80;;
15383;SDS011;7790;53.022;12.968;2023-11-19T15:24:30;2.87;;;0.93;;
15383;SDS011;7790;53.022;12.968;2023-11-19T15:28:30;1.83;;;1.17;;
15383;SDS011;7790;53.022;12.968;2023-11-19T15:32:31;1.63;;;1.10;;
15383;SDS011;7790;53.022;12.968;2023-11-19T15:36:32;2.50;;;1.00;;
15383;SDS011;7790;53.022;12.968;2023-11-19T15:40:35;1.20;;;0.90;;
15383;SDS011;7790;53.022;12.968;2023-11-19T15:44:37;0.87;;;0.80;;
15383;SDS011;7790;53.022;12.968;2023-11-19T15:48:39;1.77;;;0.87;;
15383;SDS011;7790;53.022;12.968;2023-11-19T15:52:40;1.70;;;0.80;;
15383;SDS011;7790;53.022;12.968;2023-11-19T15:56:41;1.33;;;0.80;;
15383;SDS011;7790;53.022;12.968;2023-11-19T16:00:42;1.90;;;0.97;;
15383;SDS011;7790;53.022;12.968;2023-11-19T16:04:46;1.50;;;0.93;;
15383;SDS011;7790;53.022;12.968;2023-11-19T16:08:48;2.47;;;1.10;;
15383;SDS011;7790;53.022;12.968;2023-11-19T16:12:49;2.30;;;1.00;;
15383;SDS011;7790;53.022;12.968;2023-11-19T16:16:50;4.00;;;1.07;;
15383;SDS011;7790;53.022;12.968;2023-11-19T16:20:54;2.17;;;1.20;;
15383;SDS011;7790;53.022;12.968;2023-11-19T16:24:55;3.53;;;1.60;;
15383;SDS011;7790;53.022;12.968;2023-11-19T16:28:56;4.27;;;1.10;;
15383;SDS011;7790;53.022;12.968;2023-11-19T16:32:57;4.33;;;1.00;;
15383;SDS011;7790;53.022;12.968;2023-11-19T16:37:01;2.40;;;0.90;;
15383;SDS011;7790;53.022;12.968;2023-11-19T16:41:03;4.40;;;1.10;;
15383;SDS011;7790;53.022;12.968;2023-11-19T16:45:05;2.10;;;1.20;;
15383;SDS011;7790;53.022;12.968;2023-11-19T16:49:06;2.67;;;1.40;;
15383;SDS011;7790;53.022;12.968;2023-11-19T16:53:07;4.67;;;1.13;;
15383;SDS011;7790;53.022;12.968;2023-11-19T16:57:08;4.93;;;2.33;;
15383;SDS011;7790;53.022;12.968;2023-11-19T17:01:10;11.73;;;5.97;;
15383;SDS011;7790;53.022;12.968;2023-11-19T17:05:11;15.67;;;7.83;;
15383;SDS011;7790;53.022;12.968;2023-11-19T17:09:13;17.57;;;8.30;;
15383;SDS011;7790;53.022;12.968;2023-11-19T17:13:14;16.43;;;8.37;;
15383;SDS011;7790;53.022;12.968;2023-11-19T17:17:15;15.50;;;8.03;;
15383;SDS011;7790;53.022;12.968;2023-11-19T17:21:16;17.73;;;8.20;;
15383;SDS011;7790;53.022;12.968;2023-11-19T17:25:17;12.27;;;7.27;;
15383;SDS011;7790;53.022;12.968;2023-11-19T17:29:18;13.47;;;7.40;;
15383;SDS011;7790;53.022;12.968;2023-11-19T17:33:19;15.20;;;7.10;;
15383;SDS011;7790;53.022;12.968;2023-11-19T17:37:21;11.63;;;6.60;;
15383;SDS011;7790;53.022;12.968;2023-11-19T17:41:21;12.83;;;6.93;;
15383;SDS011;7790;53.022;12.968;2023-11-19T17:45:22;9.73;;;6.70;;
15383;SDS011;7790;53.022;12.968;2023-11-19T17:49:23;12.20;;;6.57;;
15383;SDS011;7790;53.022;12.968;2023-11-19T17:53:24;11.97;;;5.67;;
15383;SDS011;7790;53.022;12.968;2023-11-19T17:57:25;12.07;;;5.60;;
15383;SDS011;7790;53.022;12.968;2023-11-19T18:01:26;8.17;;;5.53;;
15383;SDS011;7790;53.022;12.968;2023-11-19T18:05:27;11.10;;;5.37;;
15383;SDS011;7790;53.022;12.968;2023-11-19T18:09:28;8.30;;;5.30;;
15383;SDS011;7790;53.022;12.968;2023-11-19T18:13:29;8.47;;;5.30;;
15383;SDS011;7790;53.022;12.968;2023-11-19T18:17:30;11.03;;;5.07;;
15383;SDS011;7790;53.022;12.968;2023-11-19T18:21:30;11.10;;;4.90;;
15383;SDS011;7790;53.022;12.968;2023-11-19T18:25:34;5.97;;;4.40;;
15383;SDS011;7790;53.022;12.968;2023-11-19T18:29:35;8.07;;;4.43;;
15383;SDS011;7790;53.022;12.968;2023-11-19T18:33:37;9.50;;;4.60;;
15383;SDS011;7790;53.022;12.968;2023-11-19T18:37:38;10.70;;;4.40;;
15383;SDS011;7790;53.022;12.968;2023-11-19T18:41:39;8.60;;;4.50;;
15383;SDS011;7790;53.022;12.968;2023-11-19T18:45:41;10.27;;;4.60;;
15383;SDS011;7790;53.022;12.968;2023-11-19T18:49:42;6.17;;;3.83;;
15383;SDS011;7790;53.022;12.968;2023-11-19T18:53:43;6.93;;;4.00;;
15383;SDS011;7790;53.022;12.968;2023-11-19T18:57:44;5.50;;;3.73;;
15383;SDS011;7790;53.022;12.968;2023-11-19T19:01:45;9.47;;;3.70;;
15383;SDS011;7790;53.022;12.968;2023-11-19T19:05:46;7.80;;;3.70;;
15383;SDS011;7790;53.022;12.968;2023-11-19T19:09:47;7.83;;;3.50;;
15383;SDS011;7790;53.022;12.968;2023-11-19T19:13:53;6.87;;;3.60;;
15383;SDS011;7790;53.022;12.968;2023-11-19T19:17:53;7.47;;;3.37;;
15383;SDS011;7790;53.022;12.968;2023-11-19T19:21:54;7.33;;;3.40;;
15383;SDS011;7790;53.022;12.968;2023-11-19T19:25:55;9.17;;;3.43;;
15383;SDS011;7790;53.022;12.968;2023-11-19T19:29:57;18.63;;;3.43;;
15383;SDS011;7790;53.022;12.968;2023-11-19T19:33:58;7.20;;;3.23;;
15383;SDS011;7790;53.022;12.968;2023-11-19T19:37:59;12.23;;;3.27;;
15383;SDS011;7790;53.022;12.968;2023-11-19T19:42:00;9.90;;;2.97;;
15383;SDS011;7790;53.022;12.968;2023-11-19T19:46:01;8.77;;;3.03;;
15383;SDS011;7790;53.022;12.968;2023-11-19T19:50:02;8.03;;;2.73;;
15383;SDS011;7790;53.022;12.968;2023-11-19T19:54:03;6.83;;;2.90;;
15383;SDS011;7790;53.022;12.968;2023-11-19T19:58:05;8.30;;;3.00;;
15383;SDS011;7790;53.022;12.968;2023-11-19T20:02:07;5.00;;;3.00;;
15383;SDS011;7790;53.022;12.968;2023-11-19T20:06:08;4.87;;;2.80;;
15383;SDS011;7790;53.022;12.968;2023-11-19T20:10:12;7.00;;;2.87;;
15383;SDS011;7790;53.022;12.968;2023-11-19T20:14:14;4.97;;;2.33;;
15383;SDS011;7790;53.022;12.968;2023-11-19T20:18:15;9.27;;;3.30;;
15383;SDS011;7790;53.022;12.968;2023-11-19T20:22:16;5.47;;;2.73;;
15383;SDS011;7790;53.022;12.968;2023-11-19T20:26:18;3.93;;;2.20;;
15383;SDS011;7790;53.022;12.968;2023-11-19T20:30:19;7.93;;;3.00;;
15383;SDS011;7790;53.022;12.968;2023-11-19T20:34:19;7.03;;;2.67;;
15383;SDS011;7790;53.022;12.968;2023-11-19T20:38:20;4.47;;;2.37;;
15383;SDS011;7790;53.022;12.968;2023-11-19T20:42:21;4.67;;;2.23;;
15383;SDS011;7790;53.022;12.968;2023-11-19T20:46:22;4.80;;;2.60;;
15383;SDS011;7790;53.022;12.968;2023-11-19T20:50:23;5.27;;;2.33;;
15383;SDS011;7790;53.022;12.968;2023-11-19T20:54:25;8.10;;;2.47;;
15383;SDS011;7790;53.022;12.968;2023-11-19T20:58:26;4.87;;;2.30;;
15383;SDS011;7790;53.022;12.968;2023-11-19T21:02:27;5.53;;;2.63;;
15383;SDS011;7790;53.022;12.968;2023-11-19T21:06:28;6.47;;;2.43;;
15383;SDS011;7790;53.022;12.968;2023-11-19T21:10:29;3.40;;;2.10;;
15383;SDS011;7790;53.022;12.968;2023-11-19T21:14:30;4.90;;;2.03;;
15383;SDS011;7790;53.022;12.968;2023-11-19T21:18:35;5.63;;;2.77;;
15383;SDS011;7790;53.022;12.968;2023-11-19T21:22:37;9.17;;;2.87;;
15383;SDS011;7790;53.022;12.968;2023-11-19T21:26:38;5.63;;;2.20;;
15383;SDS011;7790;53.022;12.968;2023-11-19T21:30:40;6.53;;;2.33;;
15383;SDS011;7790;53.022;12.968;2023-11-19T21:34:41;4.23;;;2.13;;
15383;SDS011;7790;53.022;12.968;2023-11-19T21:38:42;5.53;;;1.87;;
15383;SDS011;7790;53.022;12.968;2023-11-19T21:42:43;4.53;;;1.93;;
15383;SDS011;7790;53.022;12.968;2023-11-19T21:46:43;3.53;;;2.10;;
15383;SDS011;7790;53.022;12.968;2023-11-19T21:50:44;2.17;;;1.60;;
15383;SDS011;7790;53.022;12.968;2023-11-19T21:54:46;3.00;;;1.63;;
15383;SDS011;7790;53.022;12.968;2023-11-19T21:58:46;4.13;;;1.80;;
15383;SDS011;7790;53.022;12.968;2023-11-19T22:02:48;5.70;;;1.97;;
15383;SDS011;7790;53.022;12.968;2023-11-19T22:06:51;3.90;;;1.60;;
15383;SDS011;7790;53.022;12.968;2023-11-19T22:10:53;4.87;;;1.70;;
15383;SDS011;7790;53.022;12.968;2023-11-19T22:14:55;5.33;;;2.00;;
15383;SDS011;7790;53.022;12.968;2023-11-19T22:18:55;6.87;;;2.03;;
15383;SDS011;7790;53.022;12.968;2023-11-19T22:22:56;2.53;;;1.60;;
15383;SDS011;7790;53.022;12.968;2023-11-19T22:26:57;3.93;;;1.63;;
15383;SDS011;7790;53.022;12.968;2023-11-19T22:30:58;3.70;;;1.50;;
15383;SDS011;7790;53.022;12.968;2023-11-19T22:34:59;4.33;;;1.50;;
15383;SDS011;7790;53.022;12.968;2023-11-19T22:39:01;2.53;;;1.80;;
15383;SDS011;7790;53.022;12.968;2023-11-19T22:43:02;2.67;;;1.57;;
15383;SDS011;7790;53.022;12.968;2023-11-19T22:47:04;3.70;;;1.50;;
15383;SDS011;7790;53.022;12.968;2023-11-19T22:51:05;2.37;;;1.50;;
15383;SDS011;7790;53.022;12.968;2023-11-19T22:55:07;5.13;;;1.70;;
15383;SDS011;7790;53.022;12.968;2023-11-19T22:59:08;3.23;;;1.67;;
15383;SDS011;7790;53.022;12.968;2023-11-19T23:03:09;2.63;;;1.37;;
15383;SDS011;7790;53.022;12.968;2023-11-19T23:07:10;1.73;;;1.30;;
15383;SDS011;7790;53.022;12.968;2023-11-19T23:11:11;2.20;;;1.50;;
15383;SDS011;7790;53.022;12.968;2023-11-19T23:15:12;3.17;;;1.60;;
15383;SDS011;7790;53.022;12.968;2023-11-19T23:19:14;2.20;;;1.40;;
15383;SDS011;7790;53.022;12.968;2023-11-19T23:23:15;2.67;;;1.50;;
15383;SDS011;7790;53.022;12.968;2023-11-19T23:27:16;2.73;;;1.30;;
15383;SDS011;7790;53.022;12.968;2023-11-19T23:31:17;2.07;;;1.37;;
15383;SDS011;7790;53.022;12.968;2023-11-19T23:35:18;2.40;;;1.30;;
15383;SDS011;7790;53.022;12.968;2023-11-19T23:39:19;2.17;;;1.40;;
15383;SDS011;7790;53.022;12.968;2023-11-19T23:43:20;2.70;;;1.33;;
15383;SDS011;7790;53.022;12.968;2023-11-19T23:47:21;2.67;;;1.33;;
15383;SDS011;7790;53.022;12.968;2023-11-19T23:51:22;2.47;;;1.37;;
15383;SDS011;7790;53.022;12.968;2023-11-19T23:55:23;2.93;;;1.33;;
15383;SDS011;7790;53.022;12.968;2023-11-19T23:59:23;1.70;;;1.13;;
